sensor_id;sensor_type;location;lat;lon;timestamp;noise_LAeq;noise_LA_min;noise_LA_max;noise_LA01;noise_LA95
73342;Laerm;61578;52.002;5.468;2022-09-09T00:00:12;41.68;38.62;45.65;;
73342;Laerm;61578;52.002;5.468;2022-09-09T00:01:08;41.67;38.25;46.61;;
73342;Laerm;61578;52.002;5.468;2022-09-09T00:02:02;41.72;37.89;45.76;;
73342;Laerm;61578;52.002;5.468;2022-09-09T00:02:35;41.65;38.50;46.30;;
73342;Laerm;61578;52.002;5.468;2022-09-09T00:03:27;41.76;38.31;45.76;;
73342;Laerm;61578;52.002;5.468;2022-09-09T00:04:24;41.60;37.90;46.59;;
73342;Laerm;61578;52.002;5.468;2022-09-09T00:07:51;41.69;38.48;45.40;;
73342;Laerm;61578;52.002;5.468;2022-09-09T00:08:53;41.70;38.46;45.15;;
73342;Laerm;61578;52.002;5.468;2022-09-09T00:09:35;41.71;38.24;45.74;;
73342;Laerm;61578;52.002;5.468;2022-09-09T00:10:39;41.48;38.23;46.08;;
73342;Laerm;61578;52.002;5.468;2022-09-09T00:11:25;41.76;38.79;45.85;;
73342;Laerm;61578;52.002;5.468;2022-09-09T00:12:27;41.78;38.65;44.94;;
73342;Laerm;61578;52.002;5.468;2022-09-09T00:13:26;41.81;38.21;46.22;;
73342;Laerm;61578;52.002;5.468;2022-09-09T00:14:14;41.57;38.09;45.05;;
73342;Laerm;61578;52.002;5.468;2022-09-09T00:14:57;41.51;38.07;45.33;;
73342;Laerm;61578;52.002;5.468;2022-09-09T00:16:28;42.31;38.49;47.94;;
73342;Laerm;61578;52.002;5.468;2022-09-09T00:18:21;41.59;38.18;45.20;;
73342;Laerm;61578;52.002;5.468;2022-09-09T00:19:16;41.60;38.47;45.19;;
73342;Laerm;61578;52.002;5.468;2022-09-09T00:19:56;41.58;38.06;45.06;;
73342;Laerm;61578;52.002;5.468;2022-09-09T00:20:55;41.62;37.85;45.43;;
73342;Laerm;61578;52.002;5.468;2022-09-09T00:21:38;41.71;38.54;45.38;;
73342;Laerm;61578;52.002;5.468;2022-09-09T00:22:23;41.72;38.28;45.41;;
73342;Laerm;61578;52.002;5.468;2022-09-09T00:23:57;41.69;37.84;44.85;;
73342;Laerm;61578;52.002;5.468;2022-09-09T00:24:42;41.60;38.32;45.11;;
73342;Laerm;61578;52.002;5.468;2022-09-09T00:25:48;41.60;37.81;45.62;;
73342;Laerm;61578;52.002;5.468;2022-09-09T00:26:43;41.48;37.66;45.46;;
73342;Laerm;61578;52.002;5.468;2022-09-09T00:27:42;41.59;38.54;45.16;;
73342;Laerm;61578;52.002;5.468;2022-09-09T00:28:27;41.57;37.97;45.61;;
73342;Laerm;61578;52.002;5.468;2022-09-09T00:30:18;41.61;38.54;45.50;;
73342;Laerm;61578;52.002;5.468;2022-09-09T00:30:53;41.58;38.13;45.26;;
73342;Laerm;61578;52.002;5.468;2022-09-09T00:31:31;41.76;38.49;45.44;;
73342;Laerm;61578;52.002;5.468;2022-09-09T00:32:18;41.57;38.03;44.77;;
73342;Laerm;61578;52.002;5.468;2022-09-09T00:32:54;41.61;38.33;45.79;;
73342;Laerm;61578;52.002;5.468;2022-09-09T00:33:30;41.96;38.52;45.49;;
73342;Laerm;61578;52.002;5.468;2022-09-09T00:34:18;42.76;38.97;46.23;;
73342;Laerm;61578;52.002;5.468;2022-09-09T00:35:58;41.63;38.29;45.38;;
73342;Laerm;61578;52.002;5.468;2022-09-09T00:36:32;41.54;38.33;45.63;;
73342;Laerm;61578;52.002;5.468;2022-09-09T00:37:08;41.48;38.71;45.46;;
73342;Laerm;61578;52.002;5.468;2022-09-09T00:37:39;41.58;38.39;45.49;;
73342;Laerm;61578;52.002;5.468;2022-09-09T00:38:28;41.40;37.88;44.75;;
73342;Laerm;61578;52.002;5.468;2022-09-09T00:39:03;41.44;38.47;44.98;;
73342;Laerm;61578;52.002;5.468;2022-09-09T00:39:44;41.37;37.50;44.96;;
73342;Laerm;61578;52.002;5.468;2022-09-09T00:40:50;41.57;38.26;45.91;;
73342;Laerm;61578;52.002;5.468;2022-09-09T00:41:53;41.70;38.48;46.14;;
73342;Laerm;61578;52.002;5.468;2022-09-09T00:42:43;41.65;38.34;45.73;;
73342;Laerm;61578;52.002;5.468;2022-09-09T00:43:30;42.04;39.01;46.51;;
73342;Laerm;61578;52.002;5.468;2022-09-09T00:44:31;42.00;38.74;45.87;;
73342;Laerm;61578;52.002;5.468;2022-09-09T00:45:19;41.66;38.54;46.10;;
73342;Laerm;61578;52.002;5.468;2022-09-09T00:47:25;41.62;38.73;45.60;;
73342;Laerm;61578;52.002;5.468;2022-09-09T00:47:56;41.65;38.67;45.35;;
73342;Laerm;61578;52.002;5.468;2022-09-09T00:48:52;41.55;38.39;44.85;;
73342;Laerm;61578;52.002;5.468;2022-09-09T00:50:51;41.56;38.30;45.18;;
73342;Laerm;61578;52.002;5.468;2022-09-09T00:51:50;41.52;38.75;45.10;;
73342;Laerm;61578;52.002;5.468;2022-09-09T00:52:51;41.72;38.29;45.27;;
73342;Laerm;61578;52.002;5.468;2022-09-09T00:54:20;41.77;38.78;44.92;;
73342;Laerm;61578;52.002;5.468;2022-09-09T00:56:20;41.58;38.26;46.93;;
73342;Laerm;61578;52.002;5.468;2022-09-09T00:57:27;41.50;36.93;45.25;;
73342;Laerm;61578;52.002;5.468;2022-09-09T00:57:58;41.65;38.27;46.48;;
73342;Laerm;61578;52.002;5.468;2022-09-09T00:58:29;41.79;38.79;46.19;;
73342;Laerm;61578;52.002;5.468;2022-09-09T00:59:25;42.13;38.22;46.62;;
73342;Laerm;61578;52.002;5.468;2022-09-09T01:00:31;42.23;38.51;46.87;;
73342;Laerm;61578;52.002;5.468;2022-09-09T01:01:11;42.15;39.05;45.91;;
73342;Laerm;61578;52.002;5.468;2022-09-09T01:01:43;41.50;38.55;44.90;;
73342;Laerm;61578;52.002;5.468;2022-09-09T01:03:53;41.42;38.17;44.71;;
73342;Laerm;61578;52.002;5.468;2022-09-09T01:04:34;41.57;37.93;44.79;;
73342;Laerm;61578;52.002;5.468;2022-09-09T01:06:16;41.50;38.65;44.54;;
73342;Laerm;61578;52.002;5.468;2022-09-09T01:07:02;41.69;38.12;45.59;;
73342;Laerm;61578;52.002;5.468;2022-09-09T01:07:34;41.62;38.13;45.22;;
73342;Laerm;61578;52.002;5.468;2022-09-09T01:09:23;41.54;38.37;46.23;;
73342;Laerm;61578;52.002;5.468;2022-09-09T01:09:58;41.79;37.82;58.11;;
73342;Laerm;61578;52.002;5.468;2022-09-09T01:11:23;41.50;38.50;47.74;;
73342;Laerm;61578;52.002;5.468;2022-09-09T01:12:03;42.19;38.97;62.07;;
73342;Laerm;61578;52.002;5.468;2022-09-09T01:12:43;41.46;38.65;44.42;;
73342;Laerm;61578;52.002;5.468;2022-09-09T01:13:25;41.58;38.44;46.06;;
73342;Laerm;61578;52.002;5.468;2022-09-09T01:15:25;41.50;38.07;45.71;;
73342;Laerm;61578;52.002;5.468;2022-09-09T01:16:03;41.59;38.37;46.61;;
73342;Laerm;61578;52.002;5.468;2022-09-09T01:16:34;41.55;38.14;45.14;;
73342;Laerm;61578;52.002;5.468;2022-09-09T01:18:20;41.48;38.34;45.12;;
73342;Laerm;61578;52.002;5.468;2022-09-09T01:18:55;41.41;38.35;45.21;;
73342;Laerm;61578;52.002;5.468;2022-09-09T01:20:55;41.53;38.56;46.13;;
73342;Laerm;61578;52.002;5.468;2022-09-09T01:24:20;41.61;38.45;45.18;;
73342;Laerm;61578;52.002;5.468;2022-09-09T01:27:03;41.59;38.67;45.03;;
73342;Laerm;61578;52.002;5.468;2022-09-09T01:27:37;41.52;38.38;45.33;;
73342;Laerm;61578;52.002;5.468;2022-09-09T01:28:25;42.43;38.79;47.07;;
73342;Laerm;61578;52.002;5.468;2022-09-09T01:28:57;43.36;39.40;56.69;;
73342;Laerm;61578;52.002;5.468;2022-09-09T01:29:28;41.88;38.67;45.63;;
73342;Laerm;61578;52.002;5.468;2022-09-09T01:30:00;41.64;38.43;45.16;;
73342;Laerm;61578;52.002;5.468;2022-09-09T01:30:34;41.52;38.26;45.06;;
73342;Laerm;61578;52.002;5.468;2022-09-09T01:31:09;41.31;37.95;44.28;;
73342;Laerm;61578;52.002;5.468;2022-09-09T01:32:01;41.53;38.29;46.24;;
73342;Laerm;61578;52.002;5.468;2022-09-09T01:32:52;41.47;38.03;45.17;;
73342;Laerm;61578;52.002;5.468;2022-09-09T01:33:24;41.60;38.01;44.80;;
73342;Laerm;61578;52.002;5.468;2022-09-09T01:33:54;41.56;38.65;45.32;;
73342;Laerm;61578;52.002;5.468;2022-09-09T01:34:32;41.45;38.32;45.35;;
73342;Laerm;61578;52.002;5.468;2022-09-09T01:35:07;41.31;38.48;44.47;;
73342;Laerm;61578;52.002;5.468;2022-09-09T01:35:52;41.53;38.13;45.25;;
73342;Laerm;61578;52.002;5.468;2022-09-09T01:36:44;41.43;38.12;46.20;;
73342;Laerm;61578;52.002;5.468;2022-09-09T01:37:16;41.28;38.34;48.14;;
73342;Laerm;61578;52.002;5.468;2022-09-09T01:37:47;41.62;38.45;45.35;;
73342;Laerm;61578;52.002;5.468;2022-09-09T01:38:18;41.53;38.19;45.77;;
73342;Laerm;61578;52.002;5.468;2022-09-09T01:38:49;41.60;38.49;45.00;;
73342;Laerm;61578;52.002;5.468;2022-09-09T01:39:21;41.96;38.77;59.75;;
73342;Laerm;61578;52.002;5.468;2022-09-09T01:39:51;41.46;38.29;44.77;;
73342;Laerm;61578;52.002;5.468;2022-09-09T01:40:23;41.57;38.26;45.70;;
73342;Laerm;61578;52.002;5.468;2022-09-09T01:40:55;41.22;38.01;45.62;;
73342;Laerm;61578;52.002;5.468;2022-09-09T01:41:25;41.41;38.30;44.61;;
73342;Laerm;61578;52.002;5.468;2022-09-09T01:41:57;41.51;38.51;44.96;;
73342;Laerm;61578;52.002;5.468;2022-09-09T01:42:28;41.51;38.40;44.92;;
73342;Laerm;61578;52.002;5.468;2022-09-09T01:42:58;41.51;38.11;45.41;;
73342;Laerm;61578;52.002;5.468;2022-09-09T01:43:30;41.50;38.30;44.97;;
73342;Laerm;61578;52.002;5.468;2022-09-09T01:44:01;41.44;38.46;44.67;;
73342;Laerm;61578;52.002;5.468;2022-09-09T01:44:35;41.50;38.66;45.24;;
73342;Laerm;61578;52.002;5.468;2022-09-09T01:45:08;41.46;38.04;45.62;;
73342;Laerm;61578;52.002;5.468;2022-09-09T01:45:42;41.41;38.10;44.85;;
73342;Laerm;61578;52.002;5.468;2022-09-09T01:46:14;41.48;38.62;45.60;;
73342;Laerm;61578;52.002;5.468;2022-09-09T01:46:46;41.43;38.81;44.99;;
73342;Laerm;61578;52.002;5.468;2022-09-09T01:47:17;41.52;38.24;45.68;;
73342;Laerm;61578;52.002;5.468;2022-09-09T01:47:51;41.38;38.69;44.64;;
73342;Laerm;61578;52.002;5.468;2022-09-09T01:48:24;41.40;38.13;44.92;;
73342;Laerm;61578;52.002;5.468;2022-09-09T01:48:58;41.59;38.31;45.10;;
73342;Laerm;61578;52.002;5.468;2022-09-09T01:49:31;42.39;38.69;48.08;;
73342;Laerm;61578;52.002;5.468;2022-09-09T01:50:03;41.48;38.53;44.55;;
73342;Laerm;61578;52.002;5.468;2022-09-09T01:50:34;41.56;38.41;45.06;;
73342;Laerm;61578;52.002;5.468;2022-09-09T01:51:05;41.26;38.26;44.62;;
73342;Laerm;61578;52.002;5.468;2022-09-09T01:51:40;41.62;38.26;46.03;;
73342;Laerm;61578;52.002;5.468;2022-09-09T01:52:12;41.65;38.56;47.04;;
73342;Laerm;61578;52.002;5.468;2022-09-09T01:52:50;41.51;38.66;45.22;;
73342;Laerm;61578;52.002;5.468;2022-09-09T01:53:22;41.46;38.60;45.25;;
73342;Laerm;61578;52.002;5.468;2022-09-09T01:53:53;41.48;38.75;44.93;;
73342;Laerm;61578;52.002;5.468;2022-09-09T01:54:30;41.57;38.80;45.38;;
73342;Laerm;61578;52.002;5.468;2022-09-09T01:55:03;41.34;38.59;45.14;;
73342;Laerm;61578;52.002;5.468;2022-09-09T01:56:12;41.47;37.86;45.06;;
73342;Laerm;61578;52.002;5.468;2022-09-09T01:57:18;41.47;38.44;45.17;;
73342;Laerm;61578;52.002;5.468;2022-09-09T01:59:12;41.55;38.25;45.18;;
73342;Laerm;61578;52.002;5.468;2022-09-09T02:00:08;41.52;38.35;46.12;;
73342;Laerm;61578;52.002;5.468;2022-09-09T02:00:54;41.62;38.51;45.33;;
73342;Laerm;61578;52.002;5.468;2022-09-09T02:03:09;41.56;38.42;45.95;;
73342;Laerm;61578;52.002;5.468;2022-09-09T02:03:56;41.47;38.25;45.52;;
73342;Laerm;61578;52.002;5.468;2022-09-09T02:04:39;41.55;38.68;45.06;;
73342;Laerm;61578;52.002;5.468;2022-09-09T02:05:40;41.34;38.04;44.47;;
73342;Laerm;61578;52.002;5.468;2022-09-09T02:06:36;41.42;38.78;45.03;;
73342;Laerm;61578;52.002;5.468;2022-09-09T02:07:50;41.36;37.98;46.44;;
73342;Laerm;61578;52.002;5.468;2022-09-09T02:08:48;41.50;38.27;45.99;;
73342;Laerm;61578;52.002;5.468;2022-09-09T02:09:24;41.48;38.37;44.92;;
73342;Laerm;61578;52.002;5.468;2022-09-09T02:10:17;41.31;38.15;44.94;;
73342;Laerm;61578;52.002;5.468;2022-09-09T02:11:03;41.49;37.98;45.46;;
73342;Laerm;61578;52.002;5.468;2022-09-09T02:11:36;41.20;38.39;44.40;;
73342;Laerm;61578;52.002;5.468;2022-09-09T02:12:18;41.34;38.65;45.56;;
73342;Laerm;61578;52.002;5.468;2022-09-09T02:13:06;41.40;38.16;45.13;;
73342;Laerm;61578;52.002;5.468;2022-09-09T02:13:40;41.38;38.08;44.69;;
73342;Laerm;61578;52.002;5.468;2022-09-09T02:14:23;41.47;38.51;45.59;;
73342;Laerm;61578;52.002;5.468;2022-09-09T02:15:04;41.50;38.62;44.64;;
73342;Laerm;61578;52.002;5.468;2022-09-09T02:15:57;41.41;38.55;46.05;;
73342;Laerm;61578;52.002;5.468;2022-09-09T02:16:44;41.45;38.64;45.53;;
73342;Laerm;61578;52.002;5.468;2022-09-09T02:17:27;41.47;38.74;45.75;;
73342;Laerm;61578;52.002;5.468;2022-09-09T02:18:07;41.41;38.18;45.16;;
73342;Laerm;61578;52.002;5.468;2022-09-09T02:19:06;41.52;38.40;45.07;;
73342;Laerm;61578;52.002;5.468;2022-09-09T02:19:55;41.64;38.16;46.20;;
73342;Laerm;61578;52.002;5.468;2022-09-09T02:20:32;41.48;38.14;44.57;;
73342;Laerm;61578;52.002;5.468;2022-09-09T02:21:06;41.46;38.30;44.81;;
73342;Laerm;61578;52.002;5.468;2022-09-09T02:21:42;41.25;38.27;44.95;;
73342;Laerm;61578;52.002;5.468;2022-09-09T02:22:19;41.38;38.03;45.05;;
73342;Laerm;61578;52.002;5.468;2022-09-09T02:22:53;41.56;38.43;45.62;;
73342;Laerm;61578;52.002;5.468;2022-09-09T02:23:25;41.41;38.09;45.19;;
73342;Laerm;61578;52.002;5.468;2022-09-09T02:24:03;41.36;38.39;44.73;;
73342;Laerm;61578;52.002;5.468;2022-09-09T02:24:39;41.26;37.93;44.77;;
73342;Laerm;61578;52.002;5.468;2022-09-09T02:25:17;41.59;38.47;46.96;;
73342;Laerm;61578;52.002;5.468;2022-09-09T02:25:53;41.68;38.44;45.74;;
73342;Laerm;61578;52.002;5.468;2022-09-09T02:26:27;41.51;38.10;46.78;;
73342;Laerm;61578;52.002;5.468;2022-09-09T02:27:05;41.38;38.53;44.77;;
73342;Laerm;61578;52.002;5.468;2022-09-09T02:27:39;41.71;38.55;59.17;;
73342;Laerm;61578;52.002;5.468;2022-09-09T02:28:16;41.53;38.27;45.44;;
73342;Laerm;61578;52.002;5.468;2022-09-09T02:28:51;41.50;38.67;44.96;;
73342;Laerm;61578;52.002;5.468;2022-09-09T02:29:31;41.56;38.45;45.12;;
73342;Laerm;61578;52.002;5.468;2022-09-09T02:30:05;41.23;38.04;45.34;;
73342;Laerm;61578;52.002;5.468;2022-09-09T02:30:40;41.34;38.05;45.20;;
73342;Laerm;61578;52.002;5.468;2022-09-09T02:31:18;41.55;38.70;45.30;;
73342;Laerm;61578;52.002;5.468;2022-09-09T02:31:52;41.45;38.07;45.05;;
73342;Laerm;61578;52.002;5.468;2022-09-09T02:32:25;41.60;38.74;44.91;;
73342;Laerm;61578;52.002;5.468;2022-09-09T02:33:02;41.41;38.58;45.67;;
73342;Laerm;61578;52.002;5.468;2022-09-09T02:33:43;41.31;38.13;44.87;;
73342;Laerm;61578;52.002;5.468;2022-09-09T02:34:21;41.52;38.12;45.21;;
73342;Laerm;61578;52.002;5.468;2022-09-09T02:35:06;42.20;38.95;48.53;;
73342;Laerm;61578;52.002;5.468;2022-09-09T02:35:42;41.77;38.87;45.80;;
73342;Laerm;61578;52.002;5.468;2022-09-09T02:36:15;41.56;38.53;44.68;;
73342;Laerm;61578;52.002;5.468;2022-09-09T02:36:52;41.56;38.66;46.06;;
73342;Laerm;61578;52.002;5.468;2022-09-09T02:37:35;41.61;38.80;45.56;;
73342;Laerm;61578;52.002;5.468;2022-09-09T02:38:13;41.51;38.52;45.40;;
73342;Laerm;61578;52.002;5.468;2022-09-09T02:38:47;41.51;38.55;45.58;;
73342;Laerm;61578;52.002;5.468;2022-09-09T02:39:20;41.48;38.61;46.27;;
73342;Laerm;61578;52.002;5.468;2022-09-09T02:39:51;41.64;38.29;45.29;;
73342;Laerm;61578;52.002;5.468;2022-09-09T02:40:22;41.45;38.37;45.02;;
73342;Laerm;61578;52.002;5.468;2022-09-09T02:40:53;41.40;38.32;45.81;;
73342;Laerm;61578;52.002;5.468;2022-09-09T02:41:31;42.11;38.32;46.31;;
73342;Laerm;61578;52.002;5.468;2022-09-09T02:42:05;41.72;38.55;45.68;;
73342;Laerm;61578;52.002;5.468;2022-09-09T02:42:43;41.64;38.64;45.42;;
73342;Laerm;61578;52.002;5.468;2022-09-09T02:43:15;41.48;38.50;45.35;;
73342;Laerm;61578;52.002;5.468;2022-09-09T02:43:49;42.14;39.01;45.61;;
73342;Laerm;61578;52.002;5.468;2022-09-09T02:44:19;41.45;38.27;45.68;;
73342;Laerm;61578;52.002;5.468;2022-09-09T02:44:50;41.35;38.20;44.78;;
73342;Laerm;61578;52.002;5.468;2022-09-09T02:45:29;41.57;38.38;45.12;;
73342;Laerm;61578;52.002;5.468;2022-09-09T02:46:27;41.44;38.51;46.17;;
73342;Laerm;61578;52.002;5.468;2022-09-09T02:47:26;41.65;38.41;45.72;;
73342;Laerm;61578;52.002;5.468;2022-09-09T02:49:44;41.39;38.39;44.44;;
73342;Laerm;61578;52.002;5.468;2022-09-09T02:50:41;41.45;38.35;46.39;;
73342;Laerm;61578;52.002;5.468;2022-09-09T02:51:35;41.47;38.40;45.09;;
73342;Laerm;61578;52.002;5.468;2022-09-09T02:52:14;41.49;38.48;45.35;;
73342;Laerm;61578;52.002;5.468;2022-09-09T02:53:23;41.27;38.30;45.05;;
73342;Laerm;61578;52.002;5.468;2022-09-09T02:54:30;41.37;37.84;45.51;;
73342;Laerm;61578;52.002;5.468;2022-09-09T02:55:18;41.57;38.83;45.05;;
73342;Laerm;61578;52.002;5.468;2022-09-09T02:56:07;41.30;38.46;46.14;;
73342;Laerm;61578;52.002;5.468;2022-09-09T02:56:49;41.52;38.35;45.06;;
73342;Laerm;61578;52.002;5.468;2022-09-09T02:57:30;41.31;38.42;45.56;;
73342;Laerm;61578;52.002;5.468;2022-09-09T02:58:08;41.48;38.87;44.84;;
73342;Laerm;61578;52.002;5.468;2022-09-09T02:58:41;41.53;37.92;45.38;;
73342;Laerm;61578;52.002;5.468;2022-09-09T02:59:12;41.53;38.30;44.65;;
73342;Laerm;61578;52.002;5.468;2022-09-09T02:59:45;41.40;38.23;44.77;;
73342;Laerm;61578;52.002;5.468;2022-09-09T03:00:24;41.42;38.45;44.79;;
73342;Laerm;61578;52.002;5.468;2022-09-09T03:00:56;41.47;38.57;44.73;;
73342;Laerm;61578;52.002;5.468;2022-09-09T03:01:28;41.34;38.84;44.58;;
73342;Laerm;61578;52.002;5.468;2022-09-09T03:01:59;41.55;38.26;44.75;;
73342;Laerm;61578;52.002;5.468;2022-09-09T03:02:29;41.51;38.95;44.98;;
73342;Laerm;61578;52.002;5.468;2022-09-09T03:03:00;41.40;38.48;44.28;;
73342;Laerm;61578;52.002;5.468;2022-09-09T03:03:32;41.55;38.81;45.20;;
73342;Laerm;61578;52.002;5.468;2022-09-09T03:04:03;41.56;38.82;44.68;;
73342;Laerm;61578;52.002;5.468;2022-09-09T03:04:35;41.49;38.45;45.30;;
73342;Laerm;61578;52.002;5.468;2022-09-09T03:05:06;41.57;38.76;44.84;;
73342;Laerm;61578;52.002;5.468;2022-09-09T03:05:37;41.57;38.88;44.97;;
73342;Laerm;61578;52.002;5.468;2022-09-09T03:06:08;41.51;38.53;44.88;;
73342;Laerm;61578;52.002;5.468;2022-09-09T03:06:40;41.63;38.43;44.62;;
73342;Laerm;61578;52.002;5.468;2022-09-09T03:07:11;41.48;37.95;44.45;;
73342;Laerm;61578;52.002;5.468;2022-09-09T03:07:42;41.29;38.52;45.37;;
73342;Laerm;61578;52.002;5.468;2022-09-09T03:08:13;41.40;38.28;44.59;;
73342;Laerm;61578;52.002;5.468;2022-09-09T03:08:43;41.58;38.18;45.86;;
73342;Laerm;61578;52.002;5.468;2022-09-09T03:09:14;41.51;38.64;45.12;;
73342;Laerm;61578;52.002;5.468;2022-09-09T03:09:45;41.53;38.40;45.18;;
73342;Laerm;61578;52.002;5.468;2022-09-09T03:10:17;41.55;38.39;45.28;;
73342;Laerm;61578;52.002;5.468;2022-09-09T03:10:48;41.48;38.31;45.50;;
73342;Laerm;61578;52.002;5.468;2022-09-09T03:11:19;41.48;38.26;44.43;;
73342;Laerm;61578;52.002;5.468;2022-09-09T03:11:50;41.47;38.69;44.45;;
73342;Laerm;61578;52.002;5.468;2022-09-09T03:12:21;41.51;38.48;44.89;;
73342;Laerm;61578;52.002;5.468;2022-09-09T03:12:51;41.59;38.35;45.86;;
73342;Laerm;61578;52.002;5.468;2022-09-09T03:13:22;41.49;38.51;45.03;;
73342;Laerm;61578;52.002;5.468;2022-09-09T03:13:53;41.62;38.68;45.36;;
73342;Laerm;61578;52.002;5.468;2022-09-09T03:14:23;41.45;38.85;45.69;;
73342;Laerm;61578;52.002;5.468;2022-09-09T03:14:57;41.50;38.21;45.13;;
73342;Laerm;61578;52.002;5.468;2022-09-09T03:15:28;41.64;38.76;44.84;;
73342;Laerm;61578;52.002;5.468;2022-09-09T03:16:00;41.46;38.66;44.99;;
73342;Laerm;61578;52.002;5.468;2022-09-09T03:16:31;41.87;39.10;45.20;;
73342;Laerm;61578;52.002;5.468;2022-09-09T03:17:05;42.22;39.09;45.07;;
73342;Laerm;61578;52.002;5.468;2022-09-09T03:17:36;41.86;38.53;45.25;;
73342;Laerm;61578;52.002;5.468;2022-09-09T03:18:07;41.53;38.59;44.69;;
73342;Laerm;61578;52.002;5.468;2022-09-09T03:18:38;41.58;37.52;44.90;;
73342;Laerm;61578;52.002;5.468;2022-09-09T03:19:09;41.44;38.42;45.09;;
73342;Laerm;61578;52.002;5.468;2022-09-09T03:19:39;41.53;38.32;45.12;;
73342;Laerm;61578;52.002;5.468;2022-09-09T03:20:10;41.34;38.25;44.05;;
73342;Laerm;61578;52.002;5.468;2022-09-09T03:20:41;41.47;38.42;45.01;;
73342;Laerm;61578;52.002;5.468;2022-09-09T03:21:12;41.55;38.61;46.64;;
73342;Laerm;61578;52.002;5.468;2022-09-09T03:21:43;41.50;38.27;44.94;;
73342;Laerm;61578;52.002;5.468;2022-09-09T03:22:13;41.49;38.92;45.07;;
73342;Laerm;61578;52.002;5.468;2022-09-09T03:22:44;41.54;37.99;45.35;;
73342;Laerm;61578;52.002;5.468;2022-09-09T03:23:15;41.43;38.89;44.45;;
73342;Laerm;61578;52.002;5.468;2022-09-09T03:23:46;41.42;38.57;44.78;;
73342;Laerm;61578;52.002;5.468;2022-09-09T03:24:17;41.51;38.43;45.23;;
73342;Laerm;61578;52.002;5.468;2022-09-09T03:24:48;41.55;38.15;44.65;;
73342;Laerm;61578;52.002;5.468;2022-09-09T03:25:18;41.25;38.17;44.27;;
73342;Laerm;61578;52.002;5.468;2022-09-09T03:25:50;43.81;39.17;50.34;;
73342;Laerm;61578;52.002;5.468;2022-09-09T03:26:22;45.29;41.22;50.89;;
73342;Laerm;61578;52.002;5.468;2022-09-09T03:26:53;43.06;39.80;46.73;;
73342;Laerm;61578;52.002;5.468;2022-09-09T03:27:26;41.61;38.72;45.34;;
73342;Laerm;61578;52.002;5.468;2022-09-09T03:27:57;41.80;38.94;45.19;;
73342;Laerm;61578;52.002;5.468;2022-09-09T03:28:27;41.68;38.59;45.30;;
73342;Laerm;61578;52.002;5.468;2022-09-09T03:29:01;41.61;38.57;45.69;;
73342;Laerm;61578;52.002;5.468;2022-09-09T03:29:32;41.69;38.73;45.31;;
73342;Laerm;61578;52.002;5.468;2022-09-09T03:30:03;41.59;38.71;44.81;;
73342;Laerm;61578;52.002;5.468;2022-09-09T03:30:34;41.29;38.58;44.80;;
73342;Laerm;61578;52.002;5.468;2022-09-09T03:31:05;41.40;38.77;45.49;;
73342;Laerm;61578;52.002;5.468;2022-09-09T03:31:36;41.52;38.72;45.04;;
73342;Laerm;61578;52.002;5.468;2022-09-09T03:32:07;41.36;38.01;45.39;;
73342;Laerm;61578;52.002;5.468;2022-09-09T03:32:41;41.29;38.23;47.99;;
73342;Laerm;61578;52.002;5.468;2022-09-09T03:33:11;41.36;38.27;45.24;;
73342;Laerm;61578;52.002;5.468;2022-09-09T03:33:43;41.28;38.26;44.79;;
73342;Laerm;61578;52.002;5.468;2022-09-09T03:34:13;41.48;38.49;44.94;;
73342;Laerm;61578;52.002;5.468;2022-09-09T03:34:44;41.57;38.32;45.12;;
73342;Laerm;61578;52.002;5.468;2022-09-09T03:35:16;41.43;38.77;45.29;;
73342;Laerm;61578;52.002;5.468;2022-09-09T03:35:47;41.50;38.31;44.87;;
73342;Laerm;61578;52.002;5.468;2022-09-09T03:36:19;41.55;38.38;45.25;;
73342;Laerm;61578;52.002;5.468;2022-09-09T03:36:49;41.60;38.48;45.37;;
73342;Laerm;61578;52.002;5.468;2022-09-09T03:37:20;41.45;38.45;45.64;;
73342;Laerm;61578;52.002;5.468;2022-09-09T03:37:51;41.56;38.79;44.73;;
73342;Laerm;61578;52.002;5.468;2022-09-09T03:38:25;41.30;38.71;44.51;;
73342;Laerm;61578;52.002;5.468;2022-09-09T03:38:56;41.35;38.00;45.14;;
73342;Laerm;61578;52.002;5.468;2022-09-09T03:39:26;41.51;38.54;44.98;;
73342;Laerm;61578;52.002;5.468;2022-09-09T03:39:57;41.44;38.80;45.79;;
73342;Laerm;61578;52.002;5.468;2022-09-09T03:40:28;41.43;38.72;45.00;;
73342;Laerm;61578;52.002;5.468;2022-09-09T03:40:59;41.51;38.33;44.89;;
73342;Laerm;61578;52.002;5.468;2022-09-09T03:41:30;41.16;37.82;45.23;;
73342;Laerm;61578;52.002;5.468;2022-09-09T03:42:01;41.33;38.67;44.80;;
73342;Laerm;61578;52.002;5.468;2022-09-09T03:42:34;41.51;38.35;44.77;;
73342;Laerm;61578;52.002;5.468;2022-09-09T03:43:07;41.62;38.45;44.59;;
73342;Laerm;61578;52.002;5.468;2022-09-09T03:43:37;43.11;39.75;47.33;;
73342;Laerm;61578;52.002;5.468;2022-09-09T03:44:08;43.01;39.97;48.01;;
73342;Laerm;61578;52.002;5.468;2022-09-09T03:44:39;41.93;38.44;44.88;;
73342;Laerm;61578;52.002;5.468;2022-09-09T03:45:10;41.59;38.72;44.57;;
73342;Laerm;61578;52.002;5.468;2022-09-09T03:45:46;41.59;38.25;44.31;;
73342;Laerm;61578;52.002;5.468;2022-09-09T03:46:25;41.58;38.01;44.89;;
73342;Laerm;61578;52.002;5.468;2022-09-09T03:46:57;41.49;38.15;45.45;;
73342;Laerm;61578;52.002;5.468;2022-09-09T03:47:30;41.42;38.75;45.08;;
73342;Laerm;61578;52.002;5.468;2022-09-09T03:48:01;41.37;38.60;44.69;;
73342;Laerm;61578;52.002;5.468;2022-09-09T03:48:32;41.40;38.13;44.41;;
73342;Laerm;61578;52.002;5.468;2022-09-09T03:49:02;41.42;38.17;47.08;;
73342;Laerm;61578;52.002;5.468;2022-09-09T03:49:33;41.46;38.53;45.03;;
73342;Laerm;61578;52.002;5.468;2022-09-09T03:50:06;41.42;38.51;45.86;;
73342;Laerm;61578;52.002;5.468;2022-09-09T03:50:38;41.31;38.71;44.65;;
73342;Laerm;61578;52.002;5.468;2022-09-09T03:51:10;41.43;38.39;44.61;;
73342;Laerm;61578;52.002;5.468;2022-09-09T03:51:41;41.39;38.48;44.47;;
73342;Laerm;61578;52.002;5.468;2022-09-09T03:52:12;41.38;38.58;46.04;;
73342;Laerm;61578;52.002;5.468;2022-09-09T03:52:42;41.63;38.77;44.96;;
73342;Laerm;61578;52.002;5.468;2022-09-09T03:53:15;41.39;38.65;44.28;;
73342;Laerm;61578;52.002;5.468;2022-09-09T03:53:46;41.33;38.49;44.84;;
73342;Laerm;61578;52.002;5.468;2022-09-09T03:54:17;41.53;38.20;44.73;;
73342;Laerm;61578;52.002;5.468;2022-09-09T03:54:47;41.51;38.45;44.77;;
73342;Laerm;61578;52.002;5.468;2022-09-09T03:55:18;41.43;38.57;44.93;;
73342;Laerm;61578;52.002;5.468;2022-09-09T03:55:52;41.56;38.18;44.75;;
73342;Laerm;61578;52.002;5.468;2022-09-09T03:56:26;41.53;38.59;45.64;;
73342;Laerm;61578;52.002;5.468;2022-09-09T03:56:57;41.84;38.30;46.98;;
73342;Laerm;61578;52.002;5.468;2022-09-09T03:57:28;47.68;39.54;54.22;;
73342;Laerm;61578;52.002;5.468;2022-09-09T03:58:00;47.91;42.31;53.64;;
73342;Laerm;61578;52.002;5.468;2022-09-09T03:58:31;43.53;39.84;49.40;;
73342;Laerm;61578;52.002;5.468;2022-09-09T03:59:02;41.82;38.45;44.78;;
73342;Laerm;61578;52.002;5.468;2022-09-09T03:59:33;41.41;38.61;44.64;;
73342;Laerm;61578;52.002;5.468;2022-09-09T04:00:07;41.49;38.09;44.64;;
73342;Laerm;61578;52.002;5.468;2022-09-09T04:00:38;41.57;38.71;44.75;;
73342;Laerm;61578;52.002;5.468;2022-09-09T04:01:13;41.49;38.33;44.76;;
73342;Laerm;61578;52.002;5.468;2022-09-09T04:01:44;41.52;38.28;44.72;;
73342;Laerm;61578;52.002;5.468;2022-09-09T04:02:15;41.52;37.66;45.37;;